TimeEST,TemperatureF,Dew PointF,Humidity,Sea Level PressureIn,VisibilityMPH,Wind Direction,Wind SpeedMPH,Gust SpeedMPH,PrecipitationIn,Events,Conditions,WindDirDegrees,DateUTC
12:15 AM,36.7,31.8,83,29.94,10.0,NNW,6.9,17.3,N/A,,Clear,340,2013-03-07 05:15:00
12:35 AM,36.7,31.8,83,29.94,10.0,NNW,6.9,-,N/A,,Scattered Clouds,330,2013-03-07 05:35:00
1:15 AM,37.6,31.1,77,29.95,10.0,NNW,11.5,19.6,N/A,,Overcast,330,2013-03-07 06:15:00
1:35 AM,37.8,30.7,76,29.96,10.0,NNW,8.1,-,N/A,,Overcast,330,2013-03-07 06:35:00
1:55 AM,37.6,30.6,76,29.96,10.0,NNW,6.9,-,N/A,,Scattered Clouds,340,2013-03-07 06:55:00
2:15 AM,37.6,30.7,76,29.96,10.0,NNW,6.9,-,N/A,,Clear,330,2013-03-07 07:15:00
2:35 AM,36.5,30.0,77,29.96,10.0,NW,4.6,-,N/A,,Clear,320,2013-03-07 07:35:00
2:55 AM,36.5,30.2,78,29.97,10.0,NW,4.6,-,N/A,,Clear,320,2013-03-07 07:55:00
3:15 AM,36.5,30.0,77,29.98,10.0,NW,5.8,-,N/A,,Clear,320,2013-03-07 08:15:00
3:35 AM,36.5,29.3,75,29.99,10.0,NW,8.1,-,N/A,,Clear,320,2013-03-07 08:35:00
3:55 AM,36.5,28.8,74,30.01,10.0,NW,8.1,-,N/A,,Clear,320,2013-03-07 08:55:00
4:15 AM,36.5,28.4,72,30.01,10.0,NNW,9.2,-,N/A,,Clear,330,2013-03-07 09:15:00
4:35 AM,36.5,28.6,73,30.02,10.0,NNW,6.9,-,N/A,,Clear,330,2013-03-07 09:35:00
4:55 AM,36.5,28.8,74,30.03,10.0,NW,4.6,-,N/A,,Scattered Clouds,320,2013-03-07 09:55:00
5:15 AM,36.5,28.4,72,30.02,10.0,NNW,8.1,-,N/A,,Overcast,330,2013-03-07 10:15:00
5:35 AM,36.5,28.4,72,30.03,10.0,NNW,6.9,-,N/A,,Mostly Cloudy,340,2013-03-07 10:35:00
5:55 AM,35.8,28.6,75,30.04,10.0,NW,4.6,-,N/A,,Scattered Clouds,320,2013-03-07 10:55:00
6:15 AM,35.1,28.4,77,30.05,10.0,Calm,Calm,-,N/A,,Clear,0,2013-03-07 11:15:00
6:35 AM,35.1,28.9,78,30.06,10.0,NNW,4.6,-,N/A,,Clear,330,2013-03-07 11:35:00
6:55 AM,35.1,28.4,77,30.06,10.0,NNW,4.6,-,N/A,,Clear,330,2013-03-07 11:55:00
7:15 AM,35.6,28.8,76,30.06,10.0,NNW,5.8,-,N/A,,Clear,330,2013-03-07 12:15:00
7:35 AM,36.5,28.9,74,30.08,10.0,NNW,5.8,-,N/A,,Clear,340,2013-03-07 12:35:00
7:55 AM,37.6,29.3,72,30.09,10.0,NNW,5.8,-,N/A,,Clear,330,2013-03-07 12:55:00
8:15 AM,38.3,29.1,70,30.10,10.0,North,8.1,-,N/A,,Clear,350,2013-03-07 13:15:00
8:35 AM,40.1,30.2,68,30.10,10.0,NNW,8.1,16.1,N/A,,Clear,330,2013-03-07 13:35:00
8:55 AM,42.8,31.1,63,30.11,10.0,NNW,10.4,19.6,N/A,,Clear,340,2013-03-07 13:55:00
9:15 AM,45.1,31.5,59,30.11,10.0,North,9.2,20.7,N/A,,Clear,350,2013-03-07 14:15:00
9:35 AM,45.1,31.1,58,30.12,10.0,NW,8.1,28.8,N/A,,Clear,320,2013-03-07 14:35:00
9:55 AM,45.1,30.0,55,30.12,10.0,North,15.0,23.0,N/A,,Clear,350,2013-03-07 14:55:00
10:15 AM,45.1,28.6,52,30.11,10.0,North,17.3,27.6,N/A,,Clear,350,2013-03-07 15:15:00
10:35 AM,45.5,27.9,50,30.11,10.0,NNW,11.5,25.3,N/A,,Clear,340,2013-03-07 15:35:00
10:55 AM,46.4,28.2,49,30.11,10.0,North,9.2,24.2,N/A,,Scattered Clouds,350,2013-03-07 15:55:00
11:15 AM,47.5,28.4,48,30.11,10.0,NNW,13.8,24.2,N/A,,Scattered Clouds,340,2013-03-07 16:15:00
11:35 AM,47.5,27.3,46,30.11,10.0,North,11.5,21.9,N/A,,Clear,350,2013-03-07 16:35:00
11:55 AM,49.8,28.6,44,30.11,10.0,NNW,10.4,23.0,N/A,,Scattered Clouds,330,2013-03-07 16:55:00
12:15 PM,50.0,27.7,42,30.09,10.0,WNW,8.1,25.3,N/A,,Scattered Clouds,300,2013-03-07 17:15:00
12:35 PM,50.0,27.0,41,30.09,10.0,NNW,10.4,18.4,N/A,,Clear,340,2013-03-07 17:35:00
12:55 PM,50.0,27.0,41,30.08,10.0,NNW,10.4,21.9,N/A,,Clear,340,2013-03-07 17:55:00
1:15 PM,50.0,27.9,42,30.07,10.0,WNW,4.6,-,N/A,,Scattered Clouds,300,2013-03-07 18:15:00
1:35 PM,50.0,27.7,42,30.07,10.0,NNW,9.2,-,N/A,,Mostly Cloudy,330,2013-03-07 18:35:00
1:55 PM,50.0,28.4,43,30.07,10.0,NNW,6.9,18.4,N/A,,Mostly Cloudy,330,2013-03-07 18:55:00
2:15 PM,50.0,29.3,45,30.07,10.0,NW,5.8,17.3,N/A,,Mostly Cloudy,320,2013-03-07 19:15:00
2:35 PM,50.0,28.8,44,30.08,10.0,NNW,4.6,21.9,N/A,,Overcast,330,2013-03-07 19:35:00
2:55 PM,50.0,28.9,44,30.08,10.0,NW,6.9,19.6,N/A,,Overcast,320,2013-03-07 19:55:00
3:15 PM,50.0,29.8,46,30.09,10.0,NW,5.8,-,N/A,,Overcast,310,2013-03-07 20:15:00
3:35 PM,47.5,27.7,46,30.09,10.0,NW,8.1,-,N/A,,Overcast,310,2013-03-07 20:35:00
3:55 PM,47.5,27.3,46,30.09,10.0,NW,5.8,-,N/A,,Overcast,320,2013-03-07 20:55:00
4:15 PM,48.9,28.8,46,30.10,10.0,NW,4.6,-,N/A,,Overcast,320,2013-03-07 21:15:00
4:35 PM,47.5,27.1,45,30.10,10.0,WNW,9.2,-,N/A,,Scattered Clouds,300,2013-03-07 21:35:00
4:55 PM,47.5,27.0,45,30.11,10.0,NNW,8.1,19.6,N/A,,Scattered Clouds,340,2013-03-07 21:55:00
5:15 PM,46.2,25.7,45,30.12,10.0,NNW,5.8,-,N/A,,Scattered Clouds,330,2013-03-07 22:15:00
5:35 PM,45.1,25.3,46,30.12,10.0,NNW,8.1,17.3,N/A,,Clear,330,2013-03-07 22:35:00
5:55 PM,45.1,25.9,47,30.13,10.0,NW,8.1,-,N/A,,Scattered Clouds,320,2013-03-07 22:55:00
6:15 PM,45.1,25.9,47,30.14,10.0,NNW,4.6,-,N/A,,Scattered Clouds,340,2013-03-07 23:15:00
6:35 PM,45.1,25.9,47,30.15,10.0,NNW,3.5,-,N/A,,Overcast,330,2013-03-07 23:35:00
6:55 PM,45.1,28.2,52,30.16,10.0,Calm,Calm,-,N/A,,Overcast,0,2013-03-07 23:55:00
8:35 PM,41.2,25.5,54,30.18,10.0,NW,3.5,-,N/A,,Clear,320,2013-03-08 01:35:00
8:55 PM,40.1,25.0,55,30.18,10.0,NW,3.5,-,N/A,,Clear,320,2013-03-08 01:55:00
9:15 PM,39.2,24.6,56,30.18,10.0,Calm,Calm,-,N/A,,Clear,0,2013-03-08 02:15:00
9:35 PM,38.8,24.8,57,30.18,10.0,NW,3.5,-,N/A,,Clear,310,2013-03-08 02:35:00
9:55 PM,38.3,24.6,58,30.18,10.0,NW,4.6,-,N/A,,Clear,320,2013-03-08 02:55:00
10:15 PM,38.3,24.3,57,30.18,10.0,Calm,Calm,-,N/A,,Clear,0,2013-03-08 03:15:00
10:35 PM,37.9,24.3,58,30.18,10.0,WNW,3.5,-,N/A,,Clear,300,2013-03-08 03:35:00
10:55 PM,37.6,24.1,58,30.18,10.0,Calm,Calm,-,N/A,,Clear,0,2013-03-08 03:55:00
11:15 PM,37.6,24.8,60,30.18,10.0,Calm,Calm,-,N/A,,Clear,0,2013-03-08 04:15:00
11:35 PM,36.5,24.6,62,30.18,10.0,Calm,Calm,-,N/A,,Clear,0,2013-03-08 04:35:00
11:55 PM,36.5,24.6,62,30.18,10.0,Calm,Calm,-,N/A,,Clear,0,2013-03-08 04:55:00